Dades meteomassalio
Diari Summary for Abril 1, 2017 Units:  Metric    English   Both
« Previous Day
Next Day »
Diari Semanal Mensual Anual Personalitzat
  Maxima: Minima: Mijana:
Temperatura: -17.8 °C -11.9 °C -10.7 °C
Rosada: -17.8 °C -15.8 °C -14.5 °C
Humitat: Humidity % 43 % 63 %
Velocitat del vent: 0 km/h 0 km/h 43.8 km/h
Racha vent: 0 km/h - -
Vent:- - WNW
Pressio: 0 hPa 34428.8 hPa -
Pluja: 7.62 mm    
Historical Graphs
 
 
Tabular Data for Abril 1, 2017
Time Temperature Dew Point Pressure Wind Wind Speed Wind Gust Humidity Rainfall Rate (Hourly) solar Conditions
-17.8 °C -17.8 °C 0 hPa Calm     Humidity % 0 mm SolarRadiationWatts/m^2 W/m2 Conditions
00:02 -11.2 °C -12.1 °C 34452.6 hPa Calm     91 % 0 mm 0.0 W/m2 RA
00:03 -11.2 °C -12.1 °C 34452.6 hPa Calm     91 % 0 mm 0.0 W/m2 RA
00:08 -11.2 °C -12 °C 34452.6 hPa Calm     91 % 0 mm 0.0 W/m2 CLR
00:13 -11.3 °C -12.1 °C 34462.7 hPa Calm     91 % 0 mm 0.0 W/m2 CLR
00:18 -11.3 °C -12.1 °C 34462.7 hPa Calm     91 % 0 mm 0.0 W/m2 CLR
00:23 -11.2 °C -11.9 °C 34452.6 hPa Calm     92 % 0 mm 0.0 W/m2 CLR
00:28 -11.3 °C -12 °C 34462.7 hPa Calm     92 % 0 mm 0.0 W/m2 CLR
00:33 -11.3 °C -12.1 °C 34452.6 hPa Calm     92 % 0 mm 0.0 W/m2 CLR
00:38 -11.3 °C -12.1 °C 34462.7 hPa Calm     92 % 0 mm 0.0 W/m2 CLR
00:43 -11.3 °C -12.1 °C 34452.6 hPa Calm     92 % 0 mm 0.0 W/m2 CLR
00:48 -11.3 °C -12.1 °C 34452.6 hPa Calm     92 % 0 mm 0.0 W/m2 CLR
00:53 -11.3 °C -12.1 °C 34452.6 hPa Calm     92 % 0 mm 0.0 W/m2 CLR
00:58 -11.3 °C -12.1 °C 34442.4 hPa Calm     92 % 0 mm 0.0 W/m2 CLR
01:03 -11.4 °C -12.2 °C 34442.4 hPa Calm     91 % 0 mm 0.0 W/m2 CLR
01:08 -11.4 °C -12.2 °C 34442.4 hPa WSW 9 km/h 9 km/h 91 % 0 mm 0.0 W/m2 CLR
01:13 -11.2 °C -12.5 °C 34428.8 hPa West 20.9 km/h 20.9 km/h 86 % 0 mm 0.0 W/m2 CLR
01:18 -11.1 °C -12.6 °C 34428.8 hPa WSW 23.8 km/h 23.8 km/h 83 % 0 mm 0.0 W/m2 CLR
01:23 -10.8 °C -12.9 °C 34428.8 hPa West 29.8 km/h 29.8 km/h 78 % 0 mm 0.0 W/m2 CLR
01:28 -10.5 °C -13.2 °C 34428.8 hPa West 28.5 km/h 28.5 km/h 73 % 0 mm 0.0 W/m2 CLR
01:33 -10.4 °C -13.3 °C 34442.4 hPa West 35.7 km/h 35.7 km/h 70 % 0 mm 0.0 W/m2 CLR
01:38 -10.3 °C -13.4 °C 34428.8 hPa WNW 35.7 km/h 35.7 km/h 69 % 0 mm 0.0 W/m2 CLR
01:43 -10.2 °C -13.6 °C 34428.8 hPa West 38.8 km/h 38.8 km/h 66 % 0 mm 0.0 W/m2 CLR
01:48 -10.2 °C -13.6 °C 34428.8 hPa WSW 44.1 km/h 44.1 km/h 66 % 0 mm 0.0 W/m2 CLR
01:53 -10.3 °C -13.6 °C 34428.8 hPa West 29.8 km/h 29.8 km/h 68 % 0 mm 0.0 W/m2 CLR
01:58 -10.5 °C -13.5 °C 34442.4 hPa WSW 23.8 km/h 23.8 km/h 70 % 0 mm 0.0 W/m2 CLR
02:03 -10.6 °C -13.6 °C 34428.8 hPa WSW 32.8 km/h 32.8 km/h 70 % 0 mm 0.0 W/m2 CLR
02:08 -10.7 °C -13.5 °C 34428.8 hPa WSW 26.9 km/h 26.9 km/h 71 % 0 mm 0.0 W/m2 CLR
02:13 -10.7 °C -13.5 °C 34428.8 hPa West 23.8 km/h 23.8 km/h 71 % 0 mm 0.0 W/m2 CLR
02:18 -10.7 °C -13.6 °C 34428.8 hPa West 20.9 km/h 20.9 km/h 71 % 0 mm 0.0 W/m2 CLR
02:23 -10.8 °C -13.6 °C 34428.8 hPa WSW 29.8 km/h 29.8 km/h 71 % 0 mm 0.0 W/m2 CLR
02:28 -10.8 °C -13.6 °C 34428.8 hPa West 29.8 km/h 29.8 km/h 71 % 0 mm 0.0 W/m2 CLR
02:33 -10.8 °C -13.7 °C 34428.8 hPa WSW 11.9 km/h 11.9 km/h 71 % 0 mm 0.0 W/m2 CLR
02:38 -10.8 °C -13.8 °C 34428.8 hPa West 17.9 km/h 17.9 km/h 70 % 0 mm 0.0 W/m2 CLR
02:43 -10.7 °C -13.9 °C 34428.8 hPa West 38.8 km/h 38.8 km/h 68 % 0 mm 0.0 W/m2 CLR
02:48 -10.5 °C -14.1 °C 34428.8 hPa West 29.8 km/h 29.8 km/h 65 % 0 mm 0.0 W/m2 CLR
02:53 -10.4 °C -14.1 °C 34428.8 hPa West 36.2 km/h 36.2 km/h 64 % 0 mm 0.0 W/m2 CLR
02:58 -10.4 °C -14.2 °C 34428.8 hPa West 35.7 km/h 35.7 km/h 63 % 0 mm 0.0 W/m2 CLR
03:03 -10.4 °C -14.1 °C 34428.8 hPa West 41.7 km/h 41.7 km/h 64 % 0 mm 0.0 W/m2 CLR
03:08 -10.4 °C -14.1 °C 34428.8 hPa West 32.8 km/h 32.8 km/h 64 % 0 mm 0.0 W/m2 CLR
03:13 -10.6 °C -14.1 °C 34428.8 hPa West 35.7 km/h 35.7 km/h 65 % 0 mm 0.0 W/m2 CLR
03:18 -10.7 °C -14.1 °C 34428.8 hPa WNW 32.8 km/h 32.8 km/h 66 % 0 mm 0.0 W/m2 CLR
03:23 -10.8 °C -14.1 °C 34428.8 hPa WNW 29.8 km/h 29.8 km/h 67 % 0 mm 0.0 W/m2 CLR
03:28 -10.9 °C -14.2 °C 34428.8 hPa WNW 26.9 km/h 26.9 km/h 67 % 0 mm 0.0 W/m2 CLR
03:33 -10.9 °C -14.2 °C 34428.8 hPa West 33.6 km/h 33.6 km/h 67 % 0 mm 0.0 W/m2 CLR
03:38 -10.9 °C -14.2 °C 34428.8 hPa WNW 29.8 km/h 29.8 km/h 67 % 0 mm 0.0 W/m2 CLR
03:43 -11 °C -14.2 °C 34428.8 hPa West 29.8 km/h 29.8 km/h 68 % 0 mm 0.0 W/m2 CLR
03:48 -11.1 °C -14.3 °C 34428.8 hPa West 28.5 km/h 28.5 km/h 68 % 0 mm 0.0 W/m2 CLR
03:53 -11.1 °C -14.3 °C 34428.8 hPa West 31.1 km/h 31.1 km/h 67 % 0 mm 0.0 W/m2 CLR
03:58 -11 °C -14.3 °C 34428.8 hPa WNW 32.8 km/h 32.8 km/h 67 % 0 mm 0.0 W/m2 CLR
04:03 -11.1 °C -14.3 °C 34428.8 hPa WNW 29.8 km/h 29.8 km/h 67 % 0 mm 0.0 W/m2 CLR
04:08 -11.2 °C -14.3 °C 34428.8 hPa WNW 29.8 km/h 29.8 km/h 68 % 0 mm 0.0 W/m2 CLR
04:13 -11.3 °C -14.3 °C 34428.8 hPa WNW 29.8 km/h 29.8 km/h 69 % 0 mm 0.0 W/m2 CLR
04:18 -11.4 °C -14.4 °C 34428.8 hPa NW 23.8 km/h 23.8 km/h 70 % 0 mm 0.0 W/m2 CLR
04:23 -11.7 °C -14.3 °C 34442.4 hPa WNW 17.9 km/h 17.9 km/h 72 % 0 mm 0.0 W/m2 CLR
04:28 -11.8 °C -14.4 °C 34428.8 hPa West 6 km/h 6 km/h 73 % 0 mm 0.0 W/m2 CLR
04:34 -11.7 °C -14.4 °C 34428.8 hPa West 29.8 km/h 29.8 km/h 72 % 0 mm 0.0 W/m2 CLR
04:39 -11.6 °C -14.4 °C 34428.8 hPa West 32.8 km/h 32.8 km/h 71 % 0 mm 0.0 W/m2 CLR
04:44 -11.6 °C -14.4 °C 34428.8 hPa WNW 32.8 km/h 32.8 km/h 71 % 0 mm 0.0 W/m2 CLR
04:49 -11.7 °C -14.6 °C 34428.8 hPa WNW 29.8 km/h 29.8 km/h 71 % 0 mm 0.0 W/m2 CLR
04:54 -11.7 °C -14.6 °C 34428.8 hPa WNW 29.8 km/h 29.8 km/h 70 % 0 mm 0.0 W/m2 CLR
04:59 -11.8 °C -14.6 °C 34428.8 hPa West 29.8 km/h 29.8 km/h 71 % 0 mm 0.0 W/m2 CLR
05:04 -11.8 °C -14.7 °C 34428.8 hPa West 29.8 km/h 29.8 km/h 70 % 0 mm 0.0 W/m2 CLR
05:09 -11.7 °C -14.6 °C 34428.8 hPa WNW 29.8 km/h 29.8 km/h 71 % 0 mm 0.0 W/m2 CLR
05:14 -11.7 °C -14.7 °C 34428.8 hPa West 32.8 km/h 32.8 km/h 70 % 0 mm 0.0 W/m2 CLR
05:19 -11.7 °C -14.7 °C 34428.8 hPa West 29.8 km/h 29.8 km/h 70 % 0 mm 0.0 W/m2 CLR
05:24 -11.7 °C -14.8 °C 34428.8 hPa West 26.9 km/h 26.9 km/h 69 % 0 mm 0.0 W/m2 CLR
05:34 -11.7 °C -14.8 °C 34428.8 hPa WNW 38.8 km/h 38.8 km/h 68 % 0 mm 0.0 W/m2 CLR
05:39 -11.7 °C -14.8 °C 34428.8 hPa WNW 29.8 km/h 29.8 km/h 68 % 0 mm 0.0 W/m2 CLR
05:44 -11.6 °C -14.9 °C 34442.4 hPa West 38.8 km/h 38.8 km/h 67 % 0 mm 0.0 W/m2 CLR
05:49 -11.6 °C -14.9 °C 34428.8 hPa West 29.8 km/h 29.8 km/h 67 % 0 mm 0.0 W/m2 CLR
05:54 -11.6 °C -14.8 °C 34428.8 hPa West 41.7 km/h 41.7 km/h 67 % 0 mm 0.0 W/m2 CLR
05:59 -11.6 °C -14.8 °C 34428.8 hPa West 38.8 km/h 38.8 km/h 67 % 0 mm 0.0 W/m2 CLR
06:04 -11.6 °C -14.9 °C 34428.8 hPa West 35.7 km/h 35.7 km/h 67 % 0 mm 0.0 W/m2 CLR
06:09 -11.7 °C -14.9 °C 34428.8 hPa West 38.8 km/h 38.8 km/h 67 % 0 mm 0.0 W/m2 CLR
06:14 -11.7 °C -14.9 °C 34428.8 hPa West 35.7 km/h 35.7 km/h 67 % 0 mm 0.0 W/m2 CLR
06:19 -11.8 °C -14.9 °C 34428.8 hPa West 35.7 km/h 35.7 km/h 68 % 0 mm 0.0 W/m2 CLR
06:24 -11.8 °C -14.9 °C 34428.8 hPa West 38.8 km/h 38.8 km/h 68 % 0 mm 0.0 W/m2 CLR
06:29 -11.8 °C -14.8 °C 34428.8 hPa WNW 38.8 km/h 38.8 km/h 69 % 0 mm 0.0 W/m2 CLR
06:34 -11.8 °C -14.8 °C 34428.8 hPa WNW 38.8 km/h 38.8 km/h 69 % 0 mm 0.0 W/m2 CLR
06:39 -11.8 °C -14.8 °C 34428.8 hPa WNW 38.8 km/h 38.8 km/h 70 % 0 mm 0.0 W/m2 CLR
06:44 -11.9 °C -14.7 °C 34428.8 hPa West 32.8 km/h 32.8 km/h 71 % 0 mm 0.0 W/m2 CLR
06:49 -11.9 °C -14.7 °C 34428.8 hPa West 36.2 km/h 36.2 km/h 71 % 0 mm 0.0 W/m2 CLR
06:54 -11.9 °C -14.8 °C 34428.8 hPa West 41.7 km/h 41.7 km/h 70 % 0 mm 0.0 W/m2 CLR
06:59 -11.9 °C -14.8 °C 34428.8 hPa WNW 38.8 km/h 38.8 km/h 70 % 0 mm 0.0 W/m2 CLR
07:04 -11.9 °C -14.8 °C 34428.8 hPa West 46.7 km/h 46.7 km/h 70 % 0 mm 0.0 W/m2 CLR
07:09 -11.8 °C -14.7 °C 34428.8 hPa West 50.7 km/h 50.7 km/h 71 % 7.62 mm 0.0 W/m2 RA
07:14 -11.9 °C -14.7 °C 34428.8 hPa WNW 47.6 km/h 47.6 km/h 71 % 7.62 mm 0.0 W/m2 CLR
07:19 -11.9 °C -14.6 °C 34428.8 hPa WNW 44.7 km/h 44.7 km/h 72 % 7.62 mm 0.0 W/m2 CLR
07:24 -11.9 °C -14.5 °C 34428.8 hPa WNW 38.8 km/h 38.8 km/h 73 % 7.62 mm 0.0 W/m2 CLR
07:29 -11.9 °C -14.5 °C 34442.4 hPa NW 38.8 km/h 38.8 km/h 73 % 7.62 mm 0.0 W/m2 CLR
07:34 -11.9 °C -14.5 °C 34442.4 hPa West 36.2 km/h 36.2 km/h 73 % 7.62 mm 0.0 W/m2 OVC
07:39 -11.9 °C -14.3 °C 34442.4 hPa WNW 29.8 km/h 29.8 km/h 74 % 7.62 mm 0.0 W/m2 OVC
07:44 -11.9 °C -14.4 °C 34452.6 hPa NW 38.8 km/h 38.8 km/h 74 % 7.62 mm 5.0 W/m2 OVC
07:49 -11.9 °C -14.4 °C 34442.4 hPa WNW 29.8 km/h 29.8 km/h 74 % 7.62 mm 9.0 W/m2 BKN
07:54 -11.9 °C -14.3 °C 34452.6 hPa WNW 29.8 km/h 29.8 km/h 74 % 7.62 mm 7.0 W/m2 BKN
07:59 -11.8 °C -14.3 °C 34452.6 hPa West 38.8 km/h 38.8 km/h 74 % 7.62 mm 19.0 W/m2 BKN
08:04 -11.8 °C -14.3 °C 34452.6 hPa WNW 31.1 km/h 31.1 km/h 74 % 7.62 mm 26.0 W/m2 BKN
08:09 -11.8 °C -14.3 °C 34452.6 hPa WNW 44.7 km/h 44.7 km/h 73 % 0 mm 32.0 W/m2 BKN
08:14 -11.8 °C -14.2 °C 34452.6 hPa WNW 38.8 km/h 38.8 km/h 74 % 0 mm 33.0 W/m2 BKN
08:19 -11.8 °C -14.3 °C 34452.6 hPa West 36.2 km/h 36.2 km/h 74 % 0 mm 39.0 W/m2 BKN
08:24 -11.8 °C -14.2 °C 34452.6 hPa West 35.7 km/h 35.7 km/h 74 % 0 mm 53.0 W/m2 SCT
08:29 -11.7 °C -14.2 °C 34452.6 hPa WNW 38.8 km/h 38.8 km/h 74 % 0 mm 104.0 W/m2 CLR
08:34 -11.6 °C -14.1 °C 34462.7 hPa NW 65.5 km/h 65.5 km/h 74 % 0 mm 77.0 W/m2 CLR
08:39 -11.6 °C -14.2 °C 34462.7 hPa NW 46.7 km/h 46.7 km/h 73 % 0 mm 84.0 W/m2 FEW
08:49 -11.5 °C -14.2 °C 34462.7 hPa WNW 59.5 km/h 59.5 km/h 72 % 0 mm 91.0 W/m2 CLR
08:54 -11.5 °C -14.2 °C 34462.7 hPa NW 50.7 km/h 50.7 km/h 72 % 0 mm 95.0 W/m2 CLR
08:59 -11.5 °C -14.2 °C 34462.7 hPa NW 44.7 km/h 44.7 km/h 72 % 0 mm 218.0 W/m2 CLR
09:04 -11.5 °C -14.2 °C 34462.7 hPa West 47.6 km/h 47.6 km/h 72 % 0 mm 207.0 W/m2 CLR
09:09 -11.4 °C -14.3 °C 34462.7 hPa NW 31.1 km/h 31.1 km/h 71 % 0 mm 214.0 W/m2 CLR
09:14 -11.4 °C -14.3 °C 34462.7 hPa NW 49.2 km/h 49.2 km/h 71 % 0 mm 230.0 W/m2 CLR
09:19 -11.4 °C -14.2 °C 34476.3 hPa WNW 38.8 km/h 38.8 km/h 71 % 0 mm 274.0 W/m2 CLR
09:24 -11.3 °C -14.3 °C 34476.3 hPa WNW 62.1 km/h 62.1 km/h 70 % 0 mm 281.0 W/m2 CLR
09:29 -11.3 °C -14.2 °C 34476.3 hPa WNW 35.7 km/h 35.7 km/h 71 % 0 mm 330.0 W/m2 CLR
09:34 -11.3 °C -14.2 °C 34476.3 hPa NW 53.6 km/h 53.6 km/h 70 % 0 mm 139.0 W/m2 CLR
09:39 -11.4 °C -14.5 °C 34476.3 hPa NNW 50.7 km/h 50.7 km/h 69 % 0 mm 155.0 W/m2 CLR
09:44 -11.5 °C -14.4 °C 34476.3 hPa NW 51.8 km/h 51.8 km/h 70 % 0 mm 137.0 W/m2 CLR
09:49 -11.6 °C -14.5 °C 34476.3 hPa WNW 59.5 km/h 59.5 km/h 70 % 0 mm 334.0 W/m2 CLR
09:54 -11.5 °C -14.4 °C 34486.4 hPa NNW 50.7 km/h 50.7 km/h 70 % 0 mm 267.0 W/m2 CLR
09:59 -11.4 °C -14.5 °C 34486.4 hPa West 68.6 km/h 68.6 km/h 69 % 0 mm 345.0 W/m2 CLR
10:04 -11.3 °C -14.4 °C 34486.4 hPa NW 59.5 km/h 59.5 km/h 69 % 0 mm 388.0 W/m2 CLR
10:09 -11.3 °C -14.4 °C 34486.4 hPa NW 51.8 km/h 51.8 km/h 69 % 0 mm 403.0 W/m2 CLR
10:14 -11.3 °C -14.3 °C 34486.4 hPa NW 53.6 km/h 53.6 km/h 69 % 0 mm 420.0 W/m2 CLR
10:19 -11.2 °C -14.2 °C 34486.4 hPa NNW 44.7 km/h 44.7 km/h 70 % 0 mm 450.0 W/m2 CLR
10:24 -11.2 °C -14.2 °C 34486.4 hPa NNW 50.7 km/h 50.7 km/h 69 % 0 mm 461.0 W/m2 CLR
10:29 -11.2 °C -14.3 °C 34486.4 hPa NNW 53.6 km/h 53.6 km/h 68 % 0 mm 439.0 W/m2 CLR
10:34 -11.1 °C -14.1 °C 34486.4 hPa WNW 59.5 km/h 59.5 km/h 69 % 0 mm 506.0 W/m2 CLR
10:39 -11.1 °C -14.3 °C 34496.6 hPa NW 50.7 km/h 50.7 km/h 68 % 0 mm 533.0 W/m2 CLR
10:44 -11.1 °C -14.2 °C 34496.6 hPa NNW 56.6 km/h 56.6 km/h 68 % 0 mm 547.0 W/m2 CLR
10:49 -11.1 °C -14.2 °C 34486.4 hPa NNW 53.6 km/h 53.6 km/h 68 % 0 mm 580.0 W/m2 CLR
10:54 -10.9 °C -13.9 °C 34486.4 hPa NNW 44.7 km/h 44.7 km/h 70 % 0 mm 606.0 W/m2 CLR
11:00 -10.8 °C -14 °C 34486.4 hPa NW 53.6 km/h 53.6 km/h 68 % 0 mm 606.0 W/m2 CLR
11:05 -10.8 °C -14 °C 34486.4 hPa WNW 62.6 km/h 62.6 km/h 68 % 0 mm 594.0 W/m2 CLR
11:10 -10.7 °C -14.1 °C 34486.4 hPa WNW 59.5 km/h 59.5 km/h 67 % 0 mm 612.0 W/m2 CLR
11:15 -10.7 °C -14.1 °C 34486.4 hPa NNW 53.6 km/h 53.6 km/h 67 % 0 mm 624.0 W/m2 CLR
11:20 -10.7 °C -14.3 °C 34496.6 hPa NW 71.5 km/h 71.5 km/h 65 % 0 mm 687.0 W/m2 CLR
11:25 -10.7 °C -14 °C 34496.6 hPa WNW 77.4 km/h 77.4 km/h 67 % 0 mm 721.0 W/m2 CLR
11:30 -10.6 °C -14.2 °C 34496.6 hPa NW 59.5 km/h 59.5 km/h 65 % 0 mm 260.0 W/m2 CLR
11:35 -10.7 °C -14.1 °C 34496.6 hPa NNW 59.5 km/h 59.5 km/h 66 % 0 mm 295.0 W/m2 CLR
11:40 -10.8 °C -14.2 °C 34510.1 hPa NW 53.6 km/h 53.6 km/h 66 % 0 mm 207.0 W/m2 CLR
11:45 -10.7 °C -14.1 °C 34510.1 hPa North 46.7 km/h 46.7 km/h 67 % 0 mm 211.0 W/m2 CLR
11:50 -10.7 °C -14 °C 34510.1 hPa NNW 49.2 km/h 49.2 km/h 67 % 0 mm 171.0 W/m2 CLR
11:55 -10.7 °C -14.1 °C 34510.1 hPa NW 53.6 km/h 53.6 km/h 67 % 0 mm 311.0 W/m2 CLR
12:00 -10.7 °C -13.8 °C 34510.1 hPa NNW 29.8 km/h 29.8 km/h 68 % 0 mm 163.0 W/m2 CLR
12:05 -10.7 °C -14.3 °C 34510.1 hPa NNW 59.5 km/h 59.5 km/h 65 % 0 mm 178.0 W/m2 CLR
12:10 -10.6 °C -14.3 °C 34510.1 hPa NNW 68.6 km/h 68.6 km/h 64 % 0 mm 214.0 W/m2 CLR
12:15 -10.5 °C -14.2 °C 34510.1 hPa NNW 65.5 km/h 65.5 km/h 64 % 0 mm 795.0 W/m2 CLR
12:20 -10.3 °C -14.2 °C 34510.1 hPa NNW 65.5 km/h 65.5 km/h 63 % 0 mm 942.0 W/m2 CLR
12:25 -10.2 °C -14.2 °C 34510.1 hPa WNW 68.6 km/h 68.6 km/h 62 % 0 mm 944.0 W/m2 CLR
12:30 -10.2 °C -14.2 °C 34510.1 hPa NNW 51.8 km/h 51.8 km/h 62 % 0 mm 323.0 W/m2 CLR
12:35 -10.4 °C -14.3 °C 34510.1 hPa NW 56.6 km/h 56.6 km/h 63 % 0 mm 248.0 W/m2 CLR
12:40 -10.6 °C -14.4 °C 34510.1 hPa NW 47.6 km/h 47.6 km/h 63 % 0 mm 313.0 W/m2 CLR
12:45 -10.4 °C -14.3 °C 34510.1 hPa WNW 65.5 km/h 65.5 km/h 63 % 0 mm 411.0 W/m2 CLR
12:50 -10.4 °C -14.5 °C 34510.1 hPa West 44.7 km/h 44.7 km/h 61 % 0 mm 353.0 W/m2 CLR
12:55 -10.3 °C -14.3 °C 34510.1 hPa NW 41.7 km/h 41.7 km/h 62 % 0 mm 299.0 W/m2 CLR
13:00 -10.3 °C -14.4 °C 34510.1 hPa WNW 50.7 km/h 50.7 km/h 61 % 0 mm 302.0 W/m2 CLR
13:05 -10.3 °C -14.4 °C 34510.1 hPa NNW 57 km/h 57 km/h 61 % 0 mm 352.0 W/m2 CLR
13:10 -10.2 °C -14.5 °C 34510.1 hPa NNW 50.7 km/h 50.7 km/h 60 % 0 mm 373.0 W/m2 CLR
13:15 -10.2 °C -14.4 °C 34496.6 hPa NW 59.5 km/h 59.5 km/h 60 % 0 mm 364.0 W/m2 CLR
13:20 -10.2 °C -14.5 °C 34496.6 hPa NW 50.7 km/h 50.7 km/h 60 % 0 mm 297.0 W/m2 CLR
13:25 -9.8 °C -14.4 °C 34496.6 hPa NW 56.6 km/h 56.6 km/h 58 % 0 mm 824.0 W/m2 CLR
13:31 -9.7 °C -14.5 °C 34496.6 hPa NW 59.5 km/h 59.5 km/h 56 % 0 mm 969.0 W/m2 CLR
13:35 -9.5 °C -14.3 °C 34496.6 hPa NNW 59.5 km/h 59.5 km/h 56 % 0 mm 930.0 W/m2 CLR
13:41 -9.4 °C -14.4 °C 34486.4 hPa NW 74.5 km/h 74.5 km/h 55 % 0 mm 965.0 W/m2 CLR
13:46 -9.6 °C -14.7 °C 34486.4 hPa NW 62.1 km/h 62.1 km/h 54 % 0 mm 937.0 W/m2 CLR
13:51 -9.3 °C -14.5 °C 34486.4 hPa NW 65.5 km/h 65.5 km/h 54 % 0 mm 947.0 W/m2 CLR
13:56 -9.3 °C -14.2 °C 34486.4 hPa WNW 65.5 km/h 65.5 km/h 56 % 0 mm 930.0 W/m2 CLR
14:01 -9.2 °C -14.5 °C 34476.3 hPa North 59.5 km/h 59.5 km/h 53 % 0 mm 875.0 W/m2 CLR
14:06 -9.2 °C -14.6 °C 34486.4 hPa NNW 38.8 km/h 38.8 km/h 53 % 0 mm 926.0 W/m2 CLR
14:11 -9.3 °C -14.9 °C 34486.4 hPa North 59.5 km/h 59.5 km/h 51 % 0 mm 144.0 W/m2 CLR
14:16 -9.3 °C -14.7 °C 34486.4 hPa NNW 57 km/h 57 km/h 52 % 0 mm 847.0 W/m2 CLR
14:21 -9.3 °C -14.7 °C 34476.3 hPa North 65.5 km/h 65.5 km/h 52 % 0 mm 875.0 W/m2 CLR
14:26 -9.2 °C -14.5 °C 34476.3 hPa NW 59.5 km/h 59.5 km/h 53 % 0 mm 893.0 W/m2 CLR
14:31 -9.2 °C -14.8 °C 34476.3 hPa NW 74.5 km/h 74.5 km/h 51 % 0 mm 905.0 W/m2 CLR
14:36 -9.1 °C -14.6 °C 34476.3 hPa NNW 68.6 km/h 68.6 km/h 52 % 0 mm 916.0 W/m2 CLR
14:41 -9.1 °C -15 °C 34476.3 hPa NNW 64.7 km/h 64.7 km/h 49 % 0 mm 886.0 W/m2 CLR
14:46 -9.2 °C -15.1 °C 34476.3 hPa NNW 69.8 km/h 69.8 km/h 49 % 0 mm 891.0 W/m2 CLR
14:51 -9.1 °C -14.7 °C 34476.3 hPa NNW 62.6 km/h 62.6 km/h 51 % 0 mm 837.0 W/m2 CLR
14:56 -9 °C -14.9 °C 34476.3 hPa NW 77.4 km/h 77.4 km/h 49 % 0 mm 831.0 W/m2 CLR
15:01 -9.1 °C -15 °C 34476.3 hPa NNW 57 km/h 57 km/h 49 % 0 mm 844.0 W/m2 CLR
15:06 -8.9 °C -14.4 °C 34462.7 hPa NW 46.7 km/h 46.7 km/h 52 % 0 mm 837.0 W/m2 CLR
15:11 -9 °C -15.1 °C 34462.7 hPa NNW 65.5 km/h 65.5 km/h 48 % 0 mm 169.0 W/m2 CLR
15:16 -9.1 °C -15.1 °C 34462.7 hPa NNW 68.6 km/h 68.6 km/h 49 % 0 mm 816.0 W/m2 CLR
15:21 -8.9 °C -15.4 °C 34462.7 hPa North 75.2 km/h 75.2 km/h 46 % 0 mm 826.0 W/m2 CLR
15:26 -8.9 °C -14.9 °C 34462.7 hPa NW 68.6 km/h 68.6 km/h 49 % 0 mm 877.0 W/m2 CLR
15:31 -8.7 °C -15.2 °C 34462.7 hPa NW 77.4 km/h 77.4 km/h 46 % 0 mm 826.0 W/m2 CLR
15:36 -8.7 °C -15.2 °C 34462.7 hPa NNW 74.5 km/h 74.5 km/h 46 % 0 mm 833.0 W/m2 CLR
15:41 -8.8 °C -15.1 °C 34462.7 hPa NNW 77.7 km/h 77.7 km/h 47 % 0 mm 197.0 W/m2 CLR
15:46 -8.8 °C -15.1 °C 34462.7 hPa North 80.5 km/h 80.5 km/h 47 % 0 mm 874.0 W/m2 CLR
15:51 -8.7 °C -14.9 °C 34452.6 hPa NNW 80.5 km/h 80.5 km/h 47 % 0 mm 837.0 W/m2 CLR
15:56 -8.6 °C -14.9 °C 34452.6 hPa North 65.5 km/h 65.5 km/h 47 % 0 mm 782.0 W/m2 CLR
16:01 -8.6 °C -15.3 °C 34452.6 hPa NNW 77.4 km/h 77.4 km/h 45 % 0 mm 747.0 W/m2 CLR
16:06 -8.7 °C -15.1 °C 34452.6 hPa NW 59.5 km/h 59.5 km/h 46 % 0 mm 728.0 W/m2 CLR
16:11 -8.6 °C -15.6 °C 34452.6 hPa NW 77.4 km/h 77.4 km/h 43 % 0 mm 717.0 W/m2 CLR
16:16 -8.7 °C -15.3 °C 34452.6 hPa NNW 77.4 km/h 77.4 km/h 45 % 0 mm 765.0 W/m2 CLR
16:21 -8.6 °C -15.1 °C 34452.6 hPa North 71.5 km/h 71.5 km/h 46 % 0 mm 708.0 W/m2 CLR
16:26 -8.6 °C -14.9 °C 34452.6 hPa NNW 74.5 km/h 74.5 km/h 47 % 0 mm 700.0 W/m2 CLR
16:31 -8.7 °C -14.9 °C 34452.6 hPa NNW 80.5 km/h 80.5 km/h 47 % 0 mm 738.0 W/m2 CLR
16:36 -9 °C -15.1 °C 34452.6 hPa NW 57 km/h 57 km/h 48 % 0 mm 737.0 W/m2 CLR
16:41 -9.1 °C -14.9 °C 34452.6 hPa NNW 38.8 km/h 38.8 km/h 50 % 0 mm 139.0 W/m2 CLR
16:46 -9.2 °C -15.1 °C 34452.6 hPa WNW 71.5 km/h 71.5 km/h 49 % 0 mm 91.0 W/m2 CLR
16:51 -9.1 °C -15.1 °C 34452.6 hPa NNW 71.5 km/h 71.5 km/h 49 % 0 mm 652.0 W/m2 CLR
16:56 -9.1 °C -15.2 °C 34452.6 hPa NNW 71.5 km/h 71.5 km/h 48 % 0 mm 626.0 W/m2 CLR
17:01 -8.9 °C -14.7 °C 34452.6 hPa NNW 62.6 km/h 62.6 km/h 50 % 0 mm 596.0 W/m2 CLR
17:06 -9.1 °C -15.2 °C 34452.6 hPa NNW 68.6 km/h 68.6 km/h 48 % 0 mm 626.0 W/m2 CLR
17:11 -9 °C -15.6 °C 34452.6 hPa NNW 68.6 km/h 68.6 km/h 45 % 0 mm 587.0 W/m2 CLR
17:16 -8.9 °C -15.4 °C 34452.6 hPa North 53.6 km/h 53.6 km/h 46 % 0 mm 573.0 W/m2 CLR
17:21 -8.7 °C -15.7 °C 34452.6 hPa NNW 74.5 km/h 74.5 km/h 43 % 0 mm 555.0 W/m2 CLR
17:26 -8.7 °C -15.7 °C 34462.7 hPa NNW 56.6 km/h 56.6 km/h 43 % 0 mm 534.0 W/m2 CLR
17:31 -8.8 °C -15.8 °C 34462.7 hPa NW 77.4 km/h 77.4 km/h 43 % 0 mm 517.0 W/m2 CLR
17:36 -8.7 °C -15.6 °C 34462.7 hPa NNW 72.6 km/h 72.6 km/h 44 % 0 mm 504.0 W/m2 CLR
17:41 -9 °C -15.8 °C 34462.7 hPa NW 86.4 km/h 86.4 km/h 44 % 0 mm 513.0 W/m2 CLR
17:46 -9.1 °C -15.2 °C 34462.7 hPa NW 62.6 km/h 62.6 km/h 48 % 0 mm 524.0 W/m2 CLR
17:51 -9.1 °C -14.8 °C 34462.7 hPa WNW 56.6 km/h 56.6 km/h 50 % 0 mm 510.0 W/m2 CLR
17:56 -9.2 °C -14.8 °C 34462.7 hPa WNW 68.6 km/h 68.6 km/h 51 % 0 mm 454.0 W/m2 CLR
18:01 -9.3 °C -14.7 °C 34462.7 hPa WNW 68.6 km/h 68.6 km/h 52 % 0 mm 420.0 W/m2 CLR
18:06 -9.3 °C -14.8 °C 34462.7 hPa WNW 50.7 km/h 50.7 km/h 52 % 0 mm 397.0 W/m2 CLR
18:11 -9.4 °C -14.8 °C 34462.7 hPa NW 50.7 km/h 50.7 km/h 52 % 0 mm 383.0 W/m2 CLR
18:16 -9.4 °C -14.8 °C 34462.7 hPa West 62.6 km/h 62.6 km/h 52 % 0 mm 371.0 W/m2 CLR
18:21 -9.6 °C -14.7 °C 34462.7 hPa West 65.5 km/h 65.5 km/h 54 % 0 mm 353.0 W/m2 CLR
18:26 -9.5 °C -14.5 °C 34462.7 hPa WNW 50.7 km/h 50.7 km/h 55 % 0 mm 332.0 W/m2 FEW
18:31 -9.5 °C -14.8 °C 34476.3 hPa West 59.5 km/h 59.5 km/h 53 % 0 mm 318.0 W/m2 BKN
18:36 -9.6 °C -14.7 °C 34476.3 hPa West 50.7 km/h 50.7 km/h 54 % 0 mm 62.0 W/m2 OVC
18:41 -9.7 °C -14.8 °C 34476.3 hPa West 50.7 km/h 50.7 km/h 54 % 0 mm 81.0 W/m2 OVC
18:46 -9.7 °C -14.8 °C 34476.3 hPa WNW 44.7 km/h 44.7 km/h 54 % 0 mm 239.0 W/m2 OVC
18:47 -9.7 °C -14.8 °C 34476.3 hPa WNW 44.7 km/h 44.7 km/h 54 % 0 mm 239.0 W/m2 OVC
18:52 -9.8 °C -14.8 °C 34476.3 hPa NW 41.7 km/h 41.7 km/h 55 % 0 mm 49.0 W/m2 OVC
18:57 -9.8 °C -14.7 °C 34486.4 hPa WNW 31.1 km/h 31.1 km/h 56 % 0 mm 79.0 W/m2 OVC
19:02 -9.9 °C -14.7 °C 34486.4 hPa WNW 41.7 km/h 41.7 km/h 56 % 0 mm 63.0 W/m2 OVC
19:07 -9.9 °C -14.8 °C 34476.3 hPa WNW 41.7 km/h 41.7 km/h 56 % 0 mm 63.0 W/m2 OVC
19:12 -9.8 °C -14.7 °C 34486.4 hPa West 32.8 km/h 32.8 km/h 56 % 0 mm 207.0 W/m2 OVC
19:17 -9.7 °C -14.6 °C 34486.4 hPa WNW 32.8 km/h 32.8 km/h 56 % 0 mm 167.0 W/m2 OVC
19:22 -9.7 °C -14.8 °C 34486.4 hPa NW 46.7 km/h 46.7 km/h 54 % 0 mm 148.0 W/m2 OVC
19:27 -9.6 °C -14.9 °C 34486.4 hPa NW 47.6 km/h 47.6 km/h 53 % 0 mm 116.0 W/m2 OVC
19:32 -9.5 °C -14.9 °C 34486.4 hPa NW 38.8 km/h 38.8 km/h 52 % 0 mm 93.0 W/m2 OVC
19:42 -9.6 °C -15.3 °C 34496.6 hPa NW 51.8 km/h 51.8 km/h 50 % 0 mm 53.0 W/m2 OVC
19:47 -9.7 °C -15.3 °C 34496.6 hPa NW 53.6 km/h 53.6 km/h 51 % 0 mm 19.0 W/m2 OVC
19:52 -9.9 °C -15.1 °C 34496.6 hPa NW 50.7 km/h 50.7 km/h 53 % 0 mm 18.0 W/m2 OVC
19:57 -10 °C -15.4 °C 34496.6 hPa NNW 44.7 km/h 44.7 km/h 52 % 0 mm 14.0 W/m2 OVC
20:02 -10.1 °C -15.3 °C 34496.6 hPa NW 38.8 km/h 38.8 km/h 53 % 0 mm 12.0 W/m2 OVC
20:07 -10.2 °C -15.2 °C 34496.6 hPa NW 44.7 km/h 44.7 km/h 54 % 0 mm 11.0 W/m2 OVC
20:12 -10.2 °C -15.3 °C 34496.6 hPa WNW 35.7 km/h 35.7 km/h 54 % 0 mm 9.0 W/m2 OVC
20:17 -10.3 °C -15.2 °C 34496.6 hPa NW 38.8 km/h 38.8 km/h 55 % 0 mm 7.0 W/m2 OVC
20:22 -10.3 °C -15.3 °C 34496.6 hPa NNW 32.8 km/h 32.8 km/h 55 % 0 mm 5.0 W/m2 OVC
20:27 -10.4 °C -15.2 °C 34496.6 hPa NW 44.7 km/h 44.7 km/h 56 % 0 mm 0.0 W/m2 OVC
20:32 -10.4 °C -15.2 °C 34496.6 hPa NW 29.8 km/h 29.8 km/h 56 % 0 mm 0.0 W/m2 OVC
20:42 -10.5 °C -15.3 °C 34510.1 hPa WNW 38.8 km/h 38.8 km/h 56 % 0 mm 0.0 W/m2 CLR
20:47 -10.5 °C -15.1 °C 34510.1 hPa NW 35.7 km/h 35.7 km/h 57 % 0 mm 0.0 W/m2 CLR
20:52 -10.5 °C -15.1 °C 34520.3 hPa NNW 32.8 km/h 32.8 km/h 57 % 0 mm 0.0 W/m2 CLR
20:57 -10.4 °C -15.1 °C 34520.3 hPa NW 29.8 km/h 29.8 km/h 57 % 0 mm 0.0 W/m2 CLR
21:02 -10.4 °C -15.1 °C 34533.8 hPa NNW 36.2 km/h 36.2 km/h 57 % 0 mm 0.0 W/m2 CLR
21:07 -10.5 °C -15.1 °C 34533.8 hPa NW 33.6 km/h 33.6 km/h 57 % 0 mm 0.0 W/m2 CLR
21:12 -10.5 °C -15.2 °C 34544 hPa North 38.8 km/h 38.8 km/h 57 % 0 mm 0.0 W/m2 CLR
21:17 -10.6 °C -15.2 °C 34544 hPa NNW 38.8 km/h 38.8 km/h 57 % 0 mm 0.0 W/m2 CLR
21:22 -10.6 °C -15.4 °C 34554.1 hPa NW 41.7 km/h 41.7 km/h 56 % 0 mm 0.0 W/m2 CLR
21:23 -10.7 °C -15.4 °C 34554.1 hPa NNW 41.7 km/h 41.7 km/h 56 % 0 mm 0.0 W/m2 CLR
21:28 -10.7 °C -15.4 °C 34554.1 hPa NNW 50.7 km/h 50.7 km/h 56 % 0 mm 0.0 W/m2 CLR
21:33 -10.8 °C -15.5 °C 34567.7 hPa NNW 50.7 km/h 50.7 km/h 56 % 0 mm 0.0 W/m2 CLR
21:38 -10.8 °C -15.7 °C 34567.7 hPa NNW 65.5 km/h 65.5 km/h 55 % 0 mm 0.0 W/m2 CLR
21:43 -10.8 °C -15.5 °C 34567.7 hPa NNW 50.7 km/h 50.7 km/h 56 % 0 mm 0.0 W/m2 CLR
21:48 -10.9 °C -15.5 °C 34567.7 hPa NNW 50.7 km/h 50.7 km/h 57 % 0 mm 0.0 W/m2 CLR
21:53 -10.9 °C -15.5 °C 34567.7 hPa NNW 41.7 km/h 41.7 km/h 57 % 0 mm 0.0 W/m2 CLR
21:58 -10.9 °C -15.4 °C 34577.8 hPa NW 38.8 km/h 38.8 km/h 58 % 0 mm 0.0 W/m2 CLR
22:03 -11.1 °C -15.4 °C 34577.8 hPa WNW 35.7 km/h 35.7 km/h 59 % 0 mm 0.0 W/m2 CLR
22:08 -11.2 °C -15.3 °C 34577.8 hPa WNW 17.9 km/h 17.9 km/h 60 % 0 mm 0.0 W/m2 CLR
22:13 -11.2 °C -15.3 °C 34577.8 hPa NW 29.8 km/h 29.8 km/h 61 % 0 mm 0.0 W/m2 CLR
22:18 -11.3 °C -15.2 °C 34577.8 hPa NW 23.8 km/h 23.8 km/h 62 % 0 mm 0.0 W/m2 CLR
22:23 -11.3 °C -15.2 °C 34577.8 hPa West 23.8 km/h 23.8 km/h 62 % 0 mm 0.0 W/m2 CLR
22:28 -11.3 °C -15.3 °C 34577.8 hPa WNW 3.1 km/h   62 % 0 mm 0.0 W/m2 CLR
22:33 -11.3 °C -15.2 °C 34577.8 hPa NW 32.8 km/h 32.8 km/h 63 % 0 mm 0.0 W/m2 CLR
22:38 -11.3 °C -15.2 °C 34577.8 hPa WNW 41.7 km/h 41.7 km/h 62 % 0 mm 0.0 W/m2 CLR
22:43 -11.3 °C -15.3 °C 34577.8 hPa NW 38.8 km/h 38.8 km/h 62 % 0 mm 0.0 W/m2 CLR
22:48 -11.4 °C -15.3 °C 34591.4 hPa NW 32.8 km/h 32.8 km/h 62 % 0 mm 0.0 W/m2 CLR
22:53 -11.4 °C -15.4 °C 34591.4 hPa NW 62.6 km/h 62.6 km/h 62 % 0 mm 0.0 W/m2 CLR
22:58 -11.5 °C -15.4 °C 34577.8 hPa NW 38.8 km/h 38.8 km/h 62 % 0 mm 0.0 W/m2 CLR
23:03 -11.6 °C -15.4 °C 34577.8 hPa NNW 29.8 km/h 29.8 km/h 62 % 0 mm 0.0 W/m2 CLR
23:08 -11.6 °C -15.4 °C 34577.8 hPa WNW 32.8 km/h 32.8 km/h 63 % 0 mm 0.0 W/m2 CLR
23:13 -11.7 °C -15.4 °C 34577.8 hPa WNW 23.8 km/h 23.8 km/h 64 % 0 mm 0.0 W/m2 CLR
23:18 -11.7 °C -15.4 °C 34577.8 hPa West 32.8 km/h 32.8 km/h 64 % 0 mm 0.0 W/m2 CLR
23:23 -11.7 °C -15.4 °C 34577.8 hPa WNW 44.7 km/h 44.7 km/h 64 % 0 mm 0.0 W/m2 CLR
23:28 -11.8 °C -15.3 °C 34577.8 hPa WNW 41.4 km/h 41.4 km/h 65 % 0 mm 0.0 W/m2 CLR
23:33 -11.8 °C -15.4 °C 34577.8 hPa WNW 29.8 km/h 29.8 km/h 65 % 0 mm 0.0 W/m2 CLR
23:38 -11.9 °C -15.4 °C 34577.8 hPa West 32.8 km/h 32.8 km/h 65 % 0 mm 0.0 W/m2 CLR
23:43 -11.8 °C -15.3 °C 34591.4 hPa WNW 53.6 km/h 53.6 km/h 65 % 0 mm 0.0 W/m2 CLR
23:48 -11.8 °C -15.3 °C 34577.8 hPa WNW 29.8 km/h 29.8 km/h 65 % 0 mm 0.0 W/m2 CLR
23:53 -11.9 °C -15.4 °C 34591.4 hPa WNW 32.8 km/h 32.8 km/h 65 % 0 mm 0.0 W/m2 CLR
23:58 -11.9 °C -15.3 °C 34577.8 hPa West 44.1 km/h 44.1 km/h 66 % 0 mm 0.0 W/m2 CLR
23:59 -11.9 °C -15.4 °C 34577.8 hPa WNW 50.7 km/h 50.7 km/h 65 % 0 mm 0.0 W/m2 CLR
Lo Temps de Massalio
Compliments of Weather Underground - 1.25 mb